createdAt,value
2018-09-20T00:01:19.325Z,12.13
2018-09-20T00:03:48.115Z,11.77
2018-09-20T00:06:16.663Z,12.00
2018-09-20T00:08:45.208Z,15.27
2018-09-20T00:11:13.683Z,12.63
2018-09-20T00:13:42.215Z,13.07
2018-09-20T00:16:10.804Z,12.10
2018-09-20T00:18:40.078Z,10.93
2018-09-20T00:21:08.577Z,11.53
2018-09-20T00:23:37.126Z,10.53
2018-09-20T00:26:05.972Z,10.57
2018-09-20T00:28:34.654Z,10.83
2018-09-20T00:31:03.450Z,11.87
2018-09-20T00:33:31.989Z,11.57
2018-09-20T00:36:00.632Z,12.27
2018-09-20T00:38:29.507Z,12.03
2018-09-20T00:40:58.107Z,11.33
2018-09-20T00:43:26.804Z,11.37
2018-09-20T00:45:55.279Z,11.50
2018-09-20T00:48:23.887Z,12.23
2018-09-20T00:50:52.595Z,11.20
2018-09-20T00:53:21.124Z,12.43
2018-09-20T00:55:49.922Z,12.10
2018-09-20T00:58:18.692Z,12.27
2018-09-20T01:00:47.168Z,12.70
2018-09-20T01:03:15.732Z,12.50
2018-09-20T01:05:44.306Z,11.37
2018-09-20T01:08:12.842Z,11.37
2018-09-20T01:10:41.539Z,11.60
2018-09-20T01:13:10.155Z,11.50
2018-09-20T01:15:38.648Z,13.57
2018-09-20T01:18:07.142Z,13.17
2018-09-20T01:20:35.808Z,12.17
2018-09-20T01:23:04.389Z,11.40
2018-09-20T01:25:32.952Z,12.30
2018-09-20T01:28:01.501Z,11.57
2018-09-20T01:30:30.041Z,12.73
2018-09-20T01:32:58.558Z,12.67
2018-09-20T01:35:27.183Z,11.97
2018-09-20T01:37:55.773Z,12.93
2018-09-20T01:40:24.259Z,12.27
2018-09-20T01:42:52.765Z,12.60
2018-09-20T01:45:21.585Z,11.80
2018-09-20T01:47:50.312Z,12.40
2018-09-20T01:50:18.807Z,12.23
2018-09-20T01:52:47.363Z,12.23
2018-09-20T01:55:16.029Z,11.53
2018-09-20T01:57:44.552Z,13.07
2018-09-20T02:00:12.982Z,13.97
2018-09-20T02:02:41.610Z,14.20
2018-09-20T02:05:10.197Z,13.80
2018-09-20T02:07:38.744Z,12.20
2018-09-20T02:10:07.382Z,13.40
2018-09-20T02:12:35.854Z,12.77
2018-09-20T02:15:04.430Z,13.00
2018-09-20T02:17:33.019Z,12.07
2018-09-20T02:20:01.608Z,12.80
2018-09-20T02:22:30.074Z,12.90
2018-09-20T02:24:58.532Z,14.57
2018-09-20T02:27:27.183Z,13.23
2018-09-20T02:29:55.729Z,11.77
2018-09-20T02:32:24.307Z,12.50
2018-09-20T02:34:52.925Z,13.37
2018-09-20T02:37:21.418Z,12.40
2018-09-20T02:39:50.056Z,12.57
2018-09-20T02:42:18.674Z,13.40
2018-09-20T02:44:47.178Z,13.30
2018-09-20T02:47:15.658Z,12.77
2018-09-20T02:49:44.639Z,13.33
2018-09-20T02:52:13.321Z,14.27
2018-09-20T02:54:42.395Z,14.37
2018-09-20T02:57:10.896Z,15.10
2018-09-20T02:59:39.466Z,14.57
2018-09-20T03:02:08.188Z,14.97
2018-09-20T03:04:36.807Z,14.97
2018-09-20T03:07:05.329Z,14.67
2018-09-20T03:09:33.937Z,14.47
2018-09-20T03:12:02.405Z,14.90
2018-09-20T03:14:32.325Z,14.60
2018-09-20T03:17:00.943Z,14.03
2018-09-20T03:19:30.036Z,14.20
2018-09-20T03:21:58.574Z,14.00
2018-09-20T03:24:27.885Z,13.57
2018-09-20T03:26:56.852Z,14.30
2018-09-20T03:29:25.566Z,12.77
2018-09-20T03:31:54.077Z,13.27
2018-09-20T03:34:22.680Z,13.73
2018-09-20T03:36:51.193Z,13.90
2018-09-20T03:39:19.828Z,13.40
2018-09-20T03:41:48.309Z,13.30
2018-09-20T03:44:16.918Z,13.80
2018-09-20T03:46:45.535Z,13.30
2018-09-20T03:49:14.092Z,13.20
2018-09-20T03:51:42.603Z,13.17
2018-09-20T03:54:11.177Z,14.33
2018-09-20T03:56:39.814Z,13.03
2018-09-20T03:59:08.393Z,13.57
2018-09-20T04:01:36.895Z,12.50
2018-09-20T04:04:05.971Z,12.50
2018-09-20T04:06:34.509Z,13.20
2018-09-20T04:09:03.231Z,12.80
2018-09-20T04:11:31.762Z,14.40
2018-09-20T04:14:00.292Z,13.87
2018-09-20T04:16:28.939Z,12.87
2018-09-20T04:18:58.487Z,13.57
2018-09-20T04:21:34.184Z,13.93
2018-09-20T04:24:04.119Z,14.17
2018-09-20T04:26:33.189Z,13.10
2018-09-20T04:29:01.939Z,13.57
2018-09-20T04:31:31.153Z,12.83
2018-09-20T04:34:00.946Z,13.57
2018-09-20T04:36:30.787Z,14.73
2018-09-20T04:38:59.563Z,14.50
2018-09-20T04:41:28.198Z,13.97
2018-09-20T04:43:56.658Z,14.67
2018-09-20T04:46:25.473Z,14.97
2018-09-20T04:48:54.056Z,15.00
2018-09-20T04:51:22.592Z,14.00
2018-09-20T04:53:51.160Z,14.77
2018-09-20T04:56:19.725Z,13.93
2018-09-20T04:58:48.303Z,16.03
2018-09-20T05:01:17.024Z,14.60
2018-09-20T05:03:45.544Z,13.70
2018-09-20T05:06:14.050Z,13.60
2018-09-20T05:08:42.517Z,12.87
2018-09-20T05:11:11.568Z,13.47
2018-09-20T05:13:40.225Z,14.00
2018-09-20T05:16:08.765Z,13.60
2018-09-20T05:18:37.305Z,13.40
2018-09-20T05:21:05.888Z,14.50
2018-09-20T05:23:38.621Z,14.17
2018-09-20T05:26:08.055Z,14.43
2018-09-20T05:28:36.693Z,15.17
2018-09-20T05:31:05.425Z,14.67
2018-09-20T05:33:33.875Z,16.43
2018-09-20T05:36:02.332Z,15.27
2018-09-20T05:38:30.828Z,21.23
2018-09-20T05:40:59.434Z,18.87
2018-09-20T05:43:28.021Z,18.50
2018-09-20T05:45:56.630Z,17.13
2018-09-20T05:48:25.199Z,16.63
2018-09-20T05:50:54.226Z,16.43
2018-09-20T05:53:23.228Z,16.53
2018-09-20T05:55:52.077Z,14.93
2018-09-20T05:58:20.592Z,15.67
2018-09-20T06:00:57.339Z,15.10
2018-09-20T06:03:26.289Z,15.63
2018-09-20T06:05:55.137Z,15.00
2018-09-20T06:08:23.662Z,16.37
2018-09-20T06:10:52.272Z,16.40
2018-09-20T06:13:20.885Z,17.97
2018-09-20T06:15:50.390Z,18.37
2018-09-20T06:18:19.038Z,18.60
2018-09-20T06:20:47.695Z,19.13
2018-09-20T06:23:16.284Z,20.10
2018-09-20T06:25:44.768Z,17.00
2018-09-20T06:28:13.410Z,18.73
2018-09-20T06:30:41.983Z,17.70
2018-09-20T06:33:10.569Z,18.40
2018-09-20T06:35:39.196Z,19.03
2018-09-20T06:38:07.664Z,18.73
2018-09-20T06:40:36.425Z,18.93
2018-09-20T06:43:05.807Z,17.50
2018-09-20T06:45:34.382Z,19.37
2018-09-20T06:48:03.021Z,18.20
2018-09-20T06:50:31.681Z,17.93
2018-09-20T06:53:00.236Z,17.70
2018-09-20T06:55:28.891Z,17.97
2018-09-20T06:57:57.470Z,18.13
2018-09-20T07:00:26.394Z,19.53
2018-09-20T07:02:55.336Z,19.53
2018-09-20T07:05:23.832Z,19.33
2018-09-20T07:07:52.383Z,20.03
2018-09-20T07:10:20.913Z,18.67
2018-09-20T07:12:49.366Z,16.20
2018-09-20T07:15:46.146Z,17.27
2018-09-20T07:18:14.729Z,18.63
2018-09-20T07:20:43.736Z,18.10
2018-09-20T07:23:12.733Z,18.03
2018-09-20T07:25:41.644Z,17.13
2018-09-20T07:28:10.155Z,16.70
2018-09-20T07:30:38.626Z,16.27
2018-09-20T07:33:07.400Z,16.03
2018-09-20T07:35:36.339Z,15.23
2018-09-20T07:38:05.057Z,15.63
2018-09-20T07:40:33.573Z,15.93
2018-09-20T07:43:02.053Z,15.40
2018-09-20T07:45:30.514Z,15.20
2018-09-20T07:47:58.971Z,14.10
2018-09-20T07:50:27.955Z,15.37
2018-09-20T07:52:56.936Z,14.27
2018-09-20T07:55:25.476Z,14.43
2018-09-20T07:57:54.054Z,14.27
2018-09-20T08:00:22.518Z,12.43
2018-09-20T08:02:51.122Z,13.13
2018-09-20T08:05:19.995Z,13.93
2018-09-20T08:07:48.561Z,14.73
2018-09-20T08:10:17.071Z,14.83
2018-09-20T08:12:45.631Z,13.57
2018-09-20T08:15:14.537Z,12.53
2018-09-20T08:17:43.560Z,13.03
2018-09-20T08:20:12.436Z,13.87
2018-09-20T08:22:41.384Z,13.37
2018-09-20T08:25:10.391Z,13.67
2018-09-20T08:27:39.457Z,12.40
2018-09-20T08:30:08.719Z,13.40
2018-09-20T08:32:37.741Z,13.13
2018-09-20T08:35:09.005Z,12.87
2018-09-20T08:37:38.185Z,13.77
2018-09-20T08:40:07.340Z,14.50
2018-09-20T08:42:36.453Z,13.60
2018-09-20T08:45:05.445Z,13.77
2018-09-20T08:47:34.576Z,13.50
2018-09-20T08:50:03.882Z,13.07
2018-09-20T08:52:33.103Z,13.30
2018-09-20T08:55:02.567Z,12.77
2018-09-20T08:57:36.377Z,14.87
2018-09-20T09:00:05.697Z,13.63
2018-09-20T09:02:34.609Z,14.03
2018-09-20T09:05:03.916Z,13.73
2018-09-20T09:07:32.933Z,13.77
2018-09-20T09:10:01.788Z,14.60
2018-09-20T09:12:31.048Z,14.53
2018-09-20T09:15:00.365Z,14.43
2018-09-20T09:17:29.970Z,14.57
2018-09-20T09:19:59.293Z,14.43
2018-09-20T09:22:28.180Z,15.03
2018-09-20T09:24:57.216Z,14.17
2018-09-20T09:27:26.105Z,14.60
2018-09-20T09:29:55.876Z,13.97
2018-09-20T09:32:25.244Z,14.87
2018-09-20T09:34:54.376Z,15.43
2018-09-20T09:37:24.124Z,16.17
2018-09-20T09:39:53.527Z,15.17
2018-09-20T09:42:23.038Z,13.73
2018-09-20T09:44:52.058Z,14.60
2018-09-20T09:47:21.006Z,14.30
2018-09-20T09:49:49.969Z,14.17
2018-09-20T09:52:18.931Z,14.87
2018-09-20T09:54:47.999Z,14.07
2018-09-20T09:57:17.014Z,13.87
2018-09-20T09:59:46.850Z,13.07
2018-09-20T10:02:15.847Z,14.00
2018-09-20T10:04:44.791Z,13.60
2018-09-20T10:07:13.959Z,13.73
2018-09-20T10:09:43.051Z,13.50
2018-09-20T10:12:12.219Z,13.17
2018-09-20T10:14:41.029Z,14.67
2018-09-20T10:17:09.903Z,13.57
2018-09-20T10:19:38.805Z,14.90
2018-09-20T10:22:07.710Z,14.50
2018-09-20T10:24:36.596Z,12.80
2018-09-20T10:27:05.648Z,12.97
2018-09-20T10:29:34.503Z,12.60
2018-09-20T10:32:03.544Z,12.30
2018-09-20T10:34:32.943Z,13.23
2018-09-20T10:37:02.005Z,13.17
2018-09-20T10:39:30.927Z,13.17
2018-09-20T10:41:59.809Z,13.17
2018-09-20T10:44:28.696Z,13.87
2018-09-20T10:47:11.380Z,14.30
2018-09-20T10:49:40.547Z,14.70
2018-09-20T10:52:09.870Z,14.70
2018-09-20T10:54:38.734Z,15.10
2018-09-20T10:57:08.300Z,13.80
2018-09-20T10:59:37.184Z,14.93
2018-09-20T11:02:06.774Z,15.07
2018-09-20T11:04:35.822Z,14.07
2018-09-20T11:07:05.269Z,13.73
2018-09-20T11:09:34.661Z,14.53
2018-09-20T11:13:07.788Z,13.47
2018-09-20T11:15:37.041Z,13.93
2018-09-20T11:18:06.000Z,15.03
2018-09-20T11:20:35.225Z,13.50
2018-09-20T11:23:04.399Z,13.13
2018-09-20T11:25:33.773Z,13.53
2018-09-20T11:28:02.883Z,12.93
2018-09-20T11:30:32.167Z,13.00
2018-09-20T11:33:01.258Z,12.57
2018-09-20T11:35:30.629Z,13.00
2018-09-20T11:37:59.561Z,12.23
2018-09-20T11:40:28.450Z,13.30
2018-09-20T11:42:57.705Z,11.80
2018-09-20T11:45:26.906Z,11.80
2018-09-20T11:47:56.073Z,12.37
2018-09-20T11:50:25.346Z,11.50
2018-09-20T11:52:54.353Z,11.70
2018-09-20T11:55:23.577Z,11.80
2018-09-20T11:57:52.761Z,11.07
2018-09-20T12:00:22.914Z,11.60
2018-09-20T12:02:53.147Z,10.93
2018-09-20T12:05:22.689Z,15.47
2018-09-20T12:07:52.276Z,14.13
2018-09-20T12:10:21.617Z,12.57
2018-09-20T12:12:50.678Z,12.43
2018-09-20T12:15:19.854Z,11.70
2018-09-20T12:17:48.864Z,11.73
2018-09-20T12:20:18.063Z,12.00
2018-09-20T12:22:47.442Z,11.67
2018-09-20T12:25:16.594Z,11.80
2018-09-20T12:27:45.770Z,10.47
2018-09-20T12:30:15.121Z,9.43
2018-09-20T12:32:44.482Z,10.43
2018-09-20T12:35:13.847Z,9.70
2018-09-20T12:37:43.087Z,9.80
2018-09-20T12:40:12.512Z,9.50
2018-09-20T12:42:41.983Z,9.37
2018-09-20T12:45:11.303Z,10.00
2018-09-20T12:47:40.811Z,9.50
2018-09-20T12:50:10.277Z,9.67
2018-09-20T12:52:39.586Z,9.53
2018-09-20T12:55:08.776Z,9.40
2018-09-20T12:57:38.087Z,9.73
2018-09-20T13:00:08.996Z,9.77
2018-09-20T13:02:38.346Z,9.50
2018-09-20T13:05:07.598Z,10.00
2018-09-20T13:07:36.921Z,10.10
2018-09-20T13:10:06.233Z,9.50
2018-09-20T13:12:35.422Z,9.33
2018-09-20T13:15:05.258Z,9.30
2018-09-20T13:17:34.582Z,9.73
2018-09-20T13:20:03.854Z,9.40
2018-09-20T13:22:33.204Z,9.43
2018-09-20T13:25:02.564Z,9.37
2018-09-20T13:27:31.755Z,10.20
2018-09-20T13:30:01.206Z,9.10
2018-09-20T13:32:30.502Z,10.27
2018-09-20T13:34:59.756Z,9.93
2018-09-20T13:37:29.167Z,9.50
2018-09-20T13:39:58.339Z,9.63
2018-09-20T13:42:27.518Z,9.77
2018-09-20T13:44:56.826Z,10.40
2018-09-20T13:47:26.203Z,10.43
2018-09-20T13:49:55.527Z,10.33
2018-09-20T13:52:24.892Z,11.37
2018-09-20T13:54:54.080Z,11.87
2018-09-20T13:57:23.286Z,11.47
2018-09-20T13:59:52.546Z,10.10
2018-09-20T14:02:21.933Z,11.07
2018-09-20T14:04:51.057Z,10.20
2018-09-20T14:07:20.502Z,10.33
2018-09-20T14:09:49.624Z,11.33
2018-09-20T14:12:19.052Z,9.60
2018-09-20T14:14:48.318Z,9.97
2018-09-20T14:17:17.595Z,10.63
2018-09-20T14:19:46.931Z,11.87
2018-09-20T14:22:15.712Z,11.43
2018-09-20T14:24:44.452Z,10.33
2018-09-20T14:27:13.405Z,10.27
2018-09-20T14:29:42.138Z,10.57
2018-09-20T14:32:11.261Z,10.17
2018-09-20T14:34:40.056Z,9.90
2018-09-20T14:37:08.745Z,9.53
2018-09-20T14:39:37.445Z,9.90
2018-09-20T14:42:06.707Z,10.20
2018-09-20T14:44:35.717Z,10.30
2018-09-20T14:47:05.516Z,9.90
2018-09-20T14:49:34.302Z,10.63
2018-09-20T14:52:03.039Z,10.47
2018-09-20T14:54:31.981Z,10.37
2018-09-20T14:57:00.842Z,9.73
2018-09-20T14:59:29.630Z,9.93
2018-09-20T15:01:58.489Z,9.13
2018-09-20T15:04:27.232Z,9.33
2018-09-20T15:06:56.124Z,9.23
2018-09-20T15:09:24.925Z,9.80
2018-09-20T15:11:53.639Z,10.00
2018-09-20T15:14:22.641Z,10.80
2018-09-20T15:16:51.325Z,9.60
2018-09-20T15:19:20.290Z,9.20
2018-09-20T15:21:49.050Z,9.63
2018-09-20T15:24:17.837Z,10.23
2018-09-20T15:26:46.698Z,10.03
2018-09-20T15:29:15.468Z,10.63
2018-09-20T15:31:44.414Z,9.43
2018-09-20T15:34:13.212Z,11.27
2018-09-20T15:36:42.122Z,9.07
2018-09-20T15:39:11.886Z,9.30
2018-09-20T15:41:40.825Z,9.90
2018-09-20T15:44:10.563Z,9.10
2018-09-20T15:46:39.134Z,10.57
2018-09-20T15:49:07.725Z,8.70
2018-09-20T15:51:36.577Z,8.33
2018-09-20T15:54:05.551Z,8.47
2018-09-20T15:56:34.359Z,9.60
2018-09-20T15:59:03.435Z,8.63
2018-09-20T16:01:32.446Z,9.23
2018-09-20T16:04:01.248Z,9.47
2018-09-20T16:06:30.117Z,8.70
2018-09-20T16:08:58.950Z,9.33
2018-09-20T16:11:27.676Z,9.13
2018-09-20T16:13:56.387Z,9.60
2018-09-20T16:16:25.244Z,9.47
2018-09-20T16:18:54.139Z,9.03
2018-09-20T16:21:23.662Z,9.27
2018-09-20T16:23:52.466Z,8.33
2018-09-20T16:26:21.491Z,8.40
2018-09-20T16:29:08.034Z,8.57
2018-09-20T16:31:49.788Z,8.13
2018-09-20T16:36:34.817Z,8.23
2018-09-20T16:39:10.497Z,9.30
2018-09-20T16:41:42.653Z,9.20
2018-09-20T16:44:11.591Z,9.60
2018-09-20T16:46:40.660Z,8.37
2018-09-20T16:49:09.611Z,8.10
2018-09-20T16:51:38.780Z,8.50
2018-09-20T16:54:07.690Z,8.27
2018-09-20T16:56:36.664Z,8.13
2018-09-20T16:59:05.773Z,7.80
2018-09-20T17:01:34.584Z,8.60
2018-09-20T17:04:03.401Z,8.47
2018-09-20T17:06:32.241Z,9.10
2018-09-20T17:09:01.030Z,9.07
2018-09-20T17:11:29.929Z,8.87
2018-09-20T17:13:58.653Z,8.67
2018-09-20T17:16:27.970Z,9.03
2018-09-20T17:18:57.256Z,9.33
2018-09-20T17:21:26.196Z,7.87
2018-09-20T17:23:55.081Z,8.63
2018-09-20T17:26:23.770Z,8.07
2018-09-20T17:28:52.404Z,8.83
2018-09-20T17:31:21.452Z,8.33
2018-09-20T17:33:50.366Z,8.00
2018-09-20T17:36:20.051Z,8.17
2018-09-20T17:38:50.648Z,8.50
2018-09-20T17:41:23.566Z,9.03
2018-09-20T17:43:57.679Z,9.80
2018-09-20T17:46:26.424Z,9.60
2018-09-20T17:48:55.322Z,9.80
2018-09-20T17:51:24.552Z,10.27
2018-09-20T17:53:54.130Z,9.50
2018-09-20T17:56:28.073Z,9.27
2018-09-20T17:58:59.083Z,9.40
2018-09-20T18:01:28.112Z,9.30
2018-09-20T18:03:57.273Z,9.83
2018-09-20T18:06:26.217Z,9.60
2018-09-20T18:08:56.001Z,9.63
2018-09-20T18:11:24.841Z,8.90
2018-09-20T18:13:53.584Z,11.00
2018-09-20T18:16:22.555Z,9.80
2018-09-20T18:18:51.983Z,10.60
2018-09-20T18:21:20.851Z,10.67
2018-09-20T18:23:49.771Z,11.40
2018-09-20T18:26:18.628Z,10.97
2018-09-20T18:28:47.731Z,11.27
2018-09-20T18:31:16.460Z,11.67
2018-09-20T18:33:45.744Z,11.37
2018-09-20T18:36:15.162Z,12.87
2018-09-20T18:38:44.319Z,12.33
2018-09-20T18:41:13.401Z,11.60
2018-09-20T18:43:42.347Z,11.60
2018-09-20T18:46:11.298Z,11.00
2018-09-20T18:48:40.193Z,10.20
2018-09-20T18:51:08.922Z,10.70
2018-09-20T18:53:37.985Z,10.93
2018-09-20T18:56:06.971Z,11.17
2018-09-20T18:58:35.809Z,10.70
2018-09-20T19:01:04.517Z,9.80
2018-09-20T19:03:33.332Z,9.70
2018-09-20T19:06:01.974Z,10.90
2018-09-20T19:08:30.819Z,10.77
2018-09-20T19:10:59.343Z,9.60
2018-09-20T19:13:28.291Z,14.63
2018-09-20T19:15:57.029Z,15.40
2018-09-20T19:18:26.086Z,15.93
2018-09-20T19:20:55.208Z,15.80
2018-09-20T19:23:24.316Z,16.33
2018-09-20T19:25:53.316Z,15.90
2018-09-20T19:28:21.919Z,16.50
2018-09-20T19:30:50.520Z,16.50
2018-09-20T19:33:19.042Z,14.90
2018-09-20T19:35:47.644Z,16.03
2018-09-20T19:38:16.869Z,16.87
2018-09-20T19:40:45.714Z,16.53
2018-09-20T19:43:14.181Z,15.73
2018-09-20T19:45:42.718Z,15.60
2018-09-20T19:48:11.504Z,15.00
2018-09-20T19:50:40.099Z,13.87
2018-09-20T19:53:08.877Z,13.67
2018-09-20T19:55:37.991Z,13.20
2018-09-20T19:58:06.943Z,13.70
2018-09-20T20:00:35.917Z,13.43
2018-09-20T20:03:05.051Z,13.33
2018-09-20T20:05:33.643Z,12.73
2018-09-20T20:08:02.541Z,12.30
2018-09-20T20:10:31.291Z,12.33
2018-09-20T20:13:00.101Z,13.30
2018-09-20T20:15:28.591Z,12.13
2018-09-20T20:17:57.065Z,13.37
2018-09-20T20:20:25.624Z,14.80
2018-09-20T20:22:54.263Z,14.77
2018-09-20T20:25:22.765Z,15.67
2018-09-20T20:27:51.259Z,16.27
2018-09-20T20:30:20.181Z,17.00
2018-09-20T20:32:48.765Z,16.13
2018-09-20T20:35:17.392Z,18.87
2018-09-20T20:37:45.928Z,18.33
2018-09-20T20:40:14.673Z,18.03
2018-09-20T20:42:43.561Z,17.80
2018-09-20T20:45:12.389Z,18.67
2018-09-20T20:47:41.513Z,19.00
2018-09-20T20:50:10.289Z,19.40
2018-09-20T20:52:39.067Z,19.53
2018-09-20T20:55:07.598Z,18.70
2018-09-20T20:57:36.154Z,19.53
2018-09-20T21:00:04.919Z,19.27
2018-09-20T21:02:33.617Z,20.03
2018-09-20T21:05:04.994Z,19.13
2018-09-20T21:07:33.860Z,18.60
2018-09-20T21:10:02.580Z,18.63
2018-09-20T21:12:31.160Z,18.93
2018-09-20T21:14:59.751Z,21.17
2018-09-20T21:17:28.459Z,24.30
2018-09-20T21:19:57.038Z,22.63
2018-09-20T21:22:25.968Z,25.80
2018-09-20T21:24:54.470Z,23.47
2018-09-20T21:27:22.995Z,22.33
2018-09-20T21:29:51.531Z,22.50
2018-09-20T21:32:20.046Z,21.90
2018-09-20T21:34:49.422Z,22.93
2018-09-20T21:37:18.943Z,22.03
2018-09-20T21:39:47.758Z,21.23
2018-09-20T21:42:16.447Z,24.70
2018-09-20T21:44:45.267Z,23.12
2018-09-20T21:47:14.765Z,22.50
2018-09-20T21:49:43.692Z,23.80
2018-09-20T21:52:12.568Z,23.27
2018-09-20T21:54:41.112Z,22.03
2018-09-20T21:57:09.679Z,22.50
2018-09-20T21:59:38.156Z,20.10
2018-09-20T22:02:07.325Z,20.50
2018-09-20T22:04:35.870Z,19.13
2018-09-20T22:07:04.495Z,19.57
2018-09-20T22:09:32.934Z,21.67
2018-09-20T22:12:01.412Z,19.97
2018-09-20T22:14:30.081Z,19.73
2018-09-20T22:16:58.577Z,19.20
2018-09-20T22:19:27.012Z,19.10
2018-09-20T22:21:55.859Z,20.20
2018-09-20T22:24:24.333Z,19.20
2018-09-20T22:26:53.204Z,18.83
2018-09-20T22:29:22.400Z,20.43
2018-09-20T22:31:50.911Z,18.80
2018-09-20T22:34:19.430Z,19.40
2018-09-20T22:36:47.826Z,21.10
2018-09-20T22:39:16.427Z,20.13
2018-09-20T22:41:45.220Z,22.43
2018-09-20T22:44:13.753Z,22.10
2018-09-20T22:46:42.198Z,22.40
2018-09-20T22:49:10.676Z,23.23
2018-09-20T22:51:39.234Z,24.60
2018-09-20T22:54:07.810Z,24.40
2018-09-20T22:56:36.970Z,22.73
2018-09-20T22:59:05.677Z,21.30
2018-09-20T23:01:34.108Z,19.90
2018-09-20T23:04:02.891Z,19.40
2018-09-20T23:06:31.405Z,18.83
2018-09-20T23:09:00.104Z,19.03
2018-09-20T23:11:28.727Z,18.87
2018-09-20T23:13:57.363Z,17.77
2018-09-20T23:16:26.516Z,17.90
2018-09-20T23:18:54.948Z,18.03
2018-09-20T23:21:23.381Z,18.30
2018-09-20T23:23:51.914Z,18.37
2018-09-20T23:26:20.732Z,19.00
2018-09-20T23:28:49.484Z,19.53
2018-09-20T23:31:17.936Z,19.77
2018-09-20T23:33:46.614Z,19.97
2018-09-20T23:36:15.164Z,22.00
2018-09-20T23:38:43.876Z,22.80
2018-09-20T23:41:12.392Z,21.07
2018-09-20T23:43:40.813Z,20.83
2018-09-20T23:46:09.365Z,20.53
2018-09-20T23:48:37.869Z,21.20
2018-09-20T23:51:06.769Z,21.07
2018-09-20T23:53:35.332Z,18.87
2018-09-20T23:56:04.387Z,19.37
2018-09-20T23:58:33.419Z,18.30
